createdAt,value
2017-04-05T00:00:32.993Z,26
2017-04-05T00:01:41.086Z,26
2017-04-05T00:02:49.168Z,26
2017-04-05T00:03:57.259Z,26
2017-04-05T00:05:05.358Z,26
2017-04-05T00:06:13.440Z,26
2017-04-05T00:07:21.527Z,26
2017-04-05T00:08:29.620Z,26
2017-04-05T00:09:37.748Z,26
2017-04-05T00:10:45.797Z,26
2017-04-05T00:11:54.046Z,26
2017-04-05T00:13:01.973Z,26
2017-04-05T00:14:10.057Z,26
2017-04-05T00:15:18.155Z,26
2017-04-05T00:16:26.240Z,26
2017-04-05T00:17:34.326Z,26
2017-04-05T00:18:42.409Z,26
2017-04-05T00:19:50.499Z,26
2017-04-05T00:20:58.594Z,26
2017-04-05T00:22:06.680Z,26
2017-04-05T00:23:14.769Z,26
2017-04-05T00:24:22.858Z,26
2017-04-05T00:25:30.947Z,26
2017-04-05T00:26:39.033Z,26
2017-04-05T00:27:47.124Z,26
2017-04-05T00:28:55.213Z,26
2017-04-05T00:30:03.299Z,26
2017-04-05T00:31:11.394Z,26
2017-04-05T00:32:19.478Z,26
2017-04-05T00:33:27.560Z,26
2017-04-05T00:34:35.647Z,26
2017-04-05T00:35:43.768Z,26
2017-04-05T00:36:51.828Z,26
2017-04-05T00:37:59.915Z,26
2017-04-05T00:39:08.004Z,26
2017-04-05T00:40:16.090Z,26
2017-04-05T00:41:24.177Z,26
2017-04-05T00:42:32.262Z,26
2017-04-05T00:43:40.353Z,26
2017-04-05T00:44:48.434Z,26
2017-04-05T00:45:56.522Z,26
2017-04-05T00:47:04.612Z,26
2017-04-05T00:48:12.698Z,26
2017-04-05T00:49:20.785Z,26
2017-04-05T00:50:28.871Z,26
2017-04-05T00:51:36.956Z,26
2017-04-05T00:52:45.043Z,26
2017-04-05T00:53:53.127Z,26
2017-04-05T00:55:01.220Z,26
2017-04-05T00:56:09.304Z,26
2017-04-05T00:57:17.389Z,26
2017-04-05T00:58:25.475Z,26
2017-04-05T00:59:33.567Z,26
2017-04-05T01:00:41.655Z,27
2017-04-05T01:01:49.737Z,26
2017-04-05T01:02:57.828Z,26
2017-04-05T01:04:05.916Z,26
2017-04-05T01:05:14.004Z,26
2017-04-05T01:06:22.087Z,27
2017-04-05T01:07:30.177Z,26
2017-04-05T01:08:38.259Z,26
2017-04-05T01:09:46.348Z,27
2017-04-05T01:10:54.438Z,26
2017-04-05T01:12:02.522Z,26
2017-04-05T01:13:10.627Z,26
2017-04-05T01:14:18.694Z,26
2017-04-05T01:15:26.787Z,27
2017-04-05T01:16:34.872Z,26
2017-04-05T01:17:42.954Z,27
2017-04-05T01:18:51.048Z,27
2017-04-05T01:19:59.133Z,26
2017-04-05T01:21:07.217Z,27
2017-04-05T01:22:15.308Z,26
2017-04-05T01:23:23.395Z,26
2017-04-05T01:24:31.481Z,26
2017-04-05T01:25:39.564Z,26
2017-04-05T01:26:47.650Z,26
2017-04-05T01:27:55.738Z,26
2017-04-05T01:29:03.829Z,26
2017-04-05T01:30:11.912Z,26
2017-04-05T01:31:19.999Z,26
2017-04-05T01:32:28.116Z,26
2017-04-05T01:33:36.172Z,26
2017-04-05T01:34:44.258Z,26
2017-04-05T01:35:52.348Z,26
2017-04-05T01:37:00.432Z,26
2017-04-05T01:38:08.519Z,26
2017-04-05T01:39:16.606Z,26
2017-04-05T01:40:24.693Z,26
2017-04-05T01:41:32.774Z,26
2017-04-05T01:42:40.865Z,26
2017-04-05T01:43:48.953Z,26
2017-04-05T01:44:57.088Z,26
2017-04-05T01:46:05.125Z,26
2017-04-05T01:47:13.212Z,26
2017-04-05T01:48:21.302Z,26
2017-04-05T01:49:29.377Z,26
2017-04-05T01:50:37.470Z,26
2017-04-05T01:51:45.556Z,26
2017-04-05T01:52:53.642Z,26
2017-04-05T01:54:01.732Z,26
2017-04-05T01:55:09.821Z,26
2017-04-05T01:56:17.904Z,26
2017-04-05T01:57:25.990Z,26
2017-04-05T01:58:34.083Z,26
2017-04-05T01:59:42.171Z,26
2017-04-05T02:00:50.252Z,26
2017-04-05T02:01:58.401Z,26
2017-04-05T02:03:06.431Z,26
2017-04-05T02:04:14.515Z,26
2017-04-05T02:05:22.602Z,26
2017-04-05T02:06:30.691Z,26
2017-04-05T02:07:38.782Z,26
2017-04-05T02:08:46.858Z,26
2017-04-05T02:09:54.952Z,26
2017-04-05T02:11:03.045Z,27
2017-04-05T02:12:11.126Z,26
2017-04-05T02:13:19.216Z,26
2017-04-05T02:14:27.306Z,26
2017-04-05T02:15:35.394Z,26
2017-04-05T02:16:43.483Z,26
2017-04-05T02:17:51.569Z,26
2017-04-05T02:18:59.656Z,26
2017-04-05T02:20:07.742Z,26
2017-04-05T02:21:15.832Z,26
2017-04-05T02:22:23.920Z,26
2017-04-05T02:23:32.001Z,26
2017-04-05T02:24:40.089Z,26
2017-04-05T02:25:48.176Z,26
2017-04-05T02:26:56.270Z,26
2017-04-05T02:28:04.353Z,26
2017-04-05T02:29:12.438Z,26
2017-04-05T02:30:20.527Z,26
2017-04-05T02:31:28.621Z,26
2017-04-05T02:32:36.693Z,26
2017-04-05T02:33:44.781Z,26
2017-04-05T02:34:52.870Z,26
2017-04-05T02:36:00.954Z,26
2017-04-05T02:37:09.043Z,26
2017-04-05T02:38:17.127Z,26
2017-04-05T02:39:25.214Z,26
2017-04-05T02:40:33.296Z,26
2017-04-05T02:41:41.383Z,26
2017-04-05T02:42:49.475Z,26
2017-04-05T02:43:57.558Z,26
2017-04-05T02:45:05.648Z,26
2017-04-05T02:46:13.734Z,26
2017-04-05T02:47:21.818Z,26
2017-04-05T02:48:29.913Z,26
2017-04-05T02:49:37.996Z,26
2017-04-05T02:50:46.081Z,26
2017-04-05T02:51:54.169Z,26
2017-04-05T02:53:02.256Z,26
2017-04-05T02:54:10.342Z,26
2017-04-05T02:55:18.427Z,26
2017-04-05T02:56:26.512Z,26
2017-04-05T02:57:34.603Z,26
2017-04-05T02:58:42.681Z,26
2017-04-05T02:59:50.766Z,26
2017-04-05T03:00:58.858Z,26
2017-04-05T03:02:06.943Z,26
2017-04-05T03:03:15.030Z,26
2017-04-05T03:04:23.122Z,26
2017-04-05T03:05:31.206Z,26
2017-04-05T03:06:39.292Z,26
2017-04-05T03:07:47.374Z,26
2017-04-05T03:08:55.460Z,26
2017-04-05T03:10:03.547Z,26
2017-04-05T03:11:11.629Z,26
2017-04-05T03:12:19.716Z,26
2017-04-05T03:13:27.803Z,26
2017-04-05T03:14:35.889Z,26
2017-04-05T03:15:43.979Z,26
2017-04-05T03:16:52.069Z,26
2017-04-05T03:18:00.157Z,26
2017-04-05T03:19:08.240Z,26
2017-04-05T03:20:16.329Z,26
2017-04-05T03:21:24.415Z,26
2017-04-05T03:22:32.505Z,26
2017-04-05T03:23:40.591Z,26
2017-04-05T03:24:48.680Z,26
2017-04-05T03:25:56.765Z,26
2017-04-05T03:27:04.854Z,25
2017-04-05T03:28:12.940Z,26
2017-04-05T03:29:21.036Z,26
2017-04-05T03:30:29.109Z,26
2017-04-05T03:31:37.196Z,26
2017-04-05T03:32:45.283Z,26
2017-04-05T03:33:53.365Z,26
2017-04-05T03:35:01.452Z,26
2017-04-05T03:36:09.538Z,26
2017-04-05T03:37:17.626Z,26
2017-04-05T03:38:25.708Z,26
2017-04-05T03:39:33.792Z,26
2017-04-05T03:40:41.884Z,26
2017-04-05T03:41:49.968Z,26
2017-04-05T03:42:58.094Z,26
2017-04-05T03:44:06.140Z,26
2017-04-05T03:45:14.227Z,26
2017-04-05T03:46:22.311Z,26
2017-04-05T03:47:30.399Z,26
2017-04-05T03:48:38.498Z,26
2017-04-05T03:49:46.573Z,26
2017-04-05T03:50:54.656Z,26
2017-04-05T03:52:02.754Z,26
2017-04-05T03:53:10.837Z,25
2017-04-05T03:54:18.936Z,26
2017-04-05T03:55:27.007Z,25
2017-04-05T03:56:35.096Z,25
2017-04-05T03:57:43.178Z,25
2017-04-05T03:58:51.264Z,25
2017-04-05T03:59:59.354Z,25
2017-04-05T04:01:07.454Z,26
2017-04-05T04:02:15.525Z,25
2017-04-05T04:03:23.611Z,25
2017-04-05T04:04:31.733Z,25
2017-04-05T04:05:39.788Z,25
2017-04-05T04:06:47.870Z,25
2017-04-05T04:07:55.958Z,25
2017-04-05T04:09:04.046Z,25
2017-04-05T04:10:12.128Z,26
2017-04-05T04:11:20.219Z,25
2017-04-05T04:12:28.305Z,25
2017-04-05T04:13:36.387Z,25
2017-04-05T04:14:44.469Z,25
2017-04-05T04:15:52.560Z,26
2017-04-05T04:17:00.643Z,26
2017-04-05T04:18:08.734Z,26
2017-04-05T04:19:16.811Z,25
2017-04-05T04:20:24.900Z,26
2017-04-05T04:21:32.982Z,26
2017-04-05T04:22:41.840Z,26
2017-04-05T04:23:49.157Z,26
2017-04-05T04:24:57.245Z,26
2017-04-05T04:26:05.328Z,26
2017-04-05T04:27:13.419Z,26
2017-04-05T04:28:21.503Z,26
2017-04-05T04:29:29.595Z,26
2017-04-05T04:30:37.677Z,26
2017-04-05T04:31:45.765Z,26
2017-04-05T04:32:53.853Z,26
2017-04-05T04:34:01.939Z,26
2017-04-05T04:35:10.029Z,26
2017-04-05T04:36:18.113Z,26
2017-04-05T04:37:26.205Z,26
2017-04-05T04:38:34.288Z,26
2017-04-05T04:39:42.379Z,26
2017-04-05T04:40:50.462Z,26
2017-04-05T04:41:58.549Z,26
2017-04-05T04:43:06.635Z,26
2017-04-05T04:44:14.714Z,26
2017-04-05T04:45:22.798Z,26
2017-04-05T04:46:30.886Z,26
2017-04-05T04:47:38.994Z,26
2017-04-05T04:48:47.065Z,26
2017-04-05T04:49:55.148Z,26
2017-04-05T04:51:03.237Z,26
2017-04-05T04:52:11.315Z,26
2017-04-05T04:53:19.414Z,26
2017-04-05T04:54:27.499Z,27
2017-04-05T04:55:35.574Z,27
2017-04-05T04:56:43.664Z,26
2017-04-05T04:57:51.747Z,27
2017-04-05T04:58:59.836Z,26
2017-04-05T05:00:07.921Z,26
2017-04-05T05:01:16.415Z,26
2017-04-05T05:02:24.090Z,27
2017-04-05T05:03:32.176Z,26
2017-04-05T05:04:40.315Z,26
2017-04-05T05:05:48.350Z,26
2017-04-05T05:06:56.430Z,26
2017-04-05T05:08:04.615Z,26
2017-04-05T05:09:12.641Z,26
2017-04-05T05:10:21.166Z,26
2017-04-05T05:11:30.438Z,26
2017-04-05T05:12:36.855Z,26
2017-04-05T05:13:44.938Z,27
2017-04-05T05:14:53.438Z,27
2017-04-05T05:16:01.111Z,27
2017-04-05T05:17:09.200Z,27
2017-04-05T05:18:17.289Z,27
2017-04-05T05:19:25.375Z,27
2017-04-05T05:20:33.458Z,27
2017-04-05T05:21:41.582Z,27
2017-04-05T05:22:49.632Z,27
2017-04-05T05:23:57.726Z,27
2017-04-05T05:25:05.802Z,27
2017-04-05T05:26:13.890Z,27
2017-04-05T05:27:21.973Z,27
2017-04-05T05:28:30.061Z,27
2017-04-05T05:29:38.142Z,26
2017-04-05T05:30:46.240Z,26
2017-04-05T05:31:54.325Z,26
2017-04-05T05:33:02.406Z,27
2017-04-05T05:34:10.493Z,27
2017-04-05T05:35:18.579Z,27
2017-04-05T05:36:26.663Z,27
2017-04-05T05:37:34.747Z,27
2017-04-05T05:38:42.838Z,27
2017-04-05T05:39:50.930Z,27
2017-04-05T05:40:59.019Z,27
2017-04-05T05:42:07.096Z,27
2017-04-05T05:43:15.180Z,28
2017-04-05T05:44:23.263Z,27
2017-04-05T05:45:31.348Z,27
2017-04-05T05:46:39.442Z,27
2017-04-05T05:47:47.529Z,28
2017-04-05T05:48:55.611Z,27
2017-04-05T05:50:03.699Z,28
2017-04-05T05:51:11.785Z,28
2017-04-05T05:52:19.870Z,28
2017-04-05T05:53:27.952Z,28
2017-04-05T05:54:36.039Z,28
2017-04-05T05:55:44.124Z,28
2017-04-05T05:56:52.203Z,28
2017-04-05T05:58:00.298Z,28
2017-04-05T05:59:08.379Z,28
2017-04-05T06:00:16.466Z,28
2017-04-05T06:01:24.557Z,28
2017-04-05T06:02:32.642Z,28
2017-04-05T06:03:40.726Z,28
2017-04-05T06:04:48.811Z,28
2017-04-05T06:05:56.895Z,28
2017-04-05T06:07:04.979Z,28
2017-04-05T06:08:13.061Z,28
2017-04-05T06:09:21.146Z,28
2017-04-05T06:10:29.235Z,28
2017-04-05T06:11:37.317Z,28
2017-04-05T06:12:45.402Z,28
2017-04-05T06:13:53.489Z,28
2017-04-05T06:15:01.577Z,28
2017-04-05T06:16:09.704Z,28
2017-04-05T06:17:17.756Z,28
2017-04-05T06:18:25.833Z,28
2017-04-05T06:19:33.917Z,28
2017-04-05T06:20:41.998Z,28
2017-04-05T06:21:50.090Z,28
2017-04-05T06:22:58.174Z,28
2017-04-05T06:24:06.254Z,28
2017-04-05T06:25:14.344Z,28
2017-04-05T06:26:22.430Z,28
2017-04-05T06:27:30.523Z,28
2017-04-05T06:28:38.598Z,28
2017-04-05T06:29:46.688Z,28
2017-04-05T06:30:54.769Z,28
2017-04-05T06:32:02.851Z,28
2017-04-05T06:33:10.940Z,28
2017-04-05T06:34:19.028Z,28
2017-04-05T06:35:27.111Z,28
2017-04-05T06:36:35.195Z,28
2017-04-05T06:37:43.287Z,28
2017-04-05T06:38:51.370Z,28
2017-04-05T06:39:59.457Z,28
2017-04-05T06:41:07.538Z,28
2017-04-05T06:42:15.622Z,28
2017-04-05T06:43:23.713Z,28
2017-04-05T06:44:31.797Z,28
2017-04-05T06:45:39.897Z,28
2017-04-05T06:46:47.977Z,28
2017-04-05T06:47:56.068Z,28
2017-04-05T06:49:04.147Z,28
2017-04-05T06:50:12.231Z,28
2017-04-05T06:51:20.315Z,28
2017-04-05T06:52:28.395Z,28
2017-04-05T06:53:36.488Z,28
2017-04-05T06:54:44.574Z,28
2017-04-05T06:55:52.655Z,28
2017-04-05T06:57:00.743Z,28
2017-04-05T06:58:08.827Z,28
2017-04-05T06:59:16.909Z,28
2017-04-05T07:00:24.995Z,28
2017-04-05T07:01:33.080Z,28
2017-04-05T07:02:41.168Z,28
2017-04-05T07:03:49.318Z,28
2017-04-05T07:04:57.340Z,28
2017-04-05T07:06:05.426Z,28
2017-04-05T07:07:13.509Z,28
2017-04-05T07:08:21.592Z,28
2017-04-05T07:09:29.684Z,28
2017-04-05T07:10:37.764Z,28
2017-04-05T07:11:45.847Z,28
2017-04-05T07:12:53.955Z,28
2017-04-05T07:14:02.021Z,28
2017-04-05T07:15:10.107Z,28
2017-04-05T07:16:18.210Z,28
2017-04-05T07:17:26.277Z,28
2017-04-05T07:18:34.363Z,29
2017-04-05T07:19:42.448Z,28
2017-04-05T07:20:50.538Z,28
2017-04-05T07:21:58.621Z,28
2017-04-05T07:23:06.705Z,29
2017-04-05T07:24:14.789Z,28
2017-04-05T07:25:22.879Z,28
2017-04-05T07:26:30.963Z,28
2017-04-05T07:27:39.045Z,28
2017-04-05T07:28:47.133Z,28
2017-04-05T07:29:55.224Z,28
2017-04-05T07:31:03.307Z,28
2017-04-05T07:32:11.392Z,29
2017-04-05T07:33:19.477Z,29
2017-04-05T07:34:27.561Z,28
2017-04-05T07:35:35.648Z,29
2017-04-05T07:36:43.735Z,29
2017-04-05T07:37:51.820Z,29
2017-04-05T07:38:59.906Z,28
2017-04-05T07:40:07.989Z,29
2017-04-05T07:41:16.073Z,29
2017-04-05T07:42:24.621Z,28
2017-04-05T07:43:32.247Z,28
2017-04-05T07:44:40.327Z,28
2017-04-05T07:45:48.408Z,29
2017-04-05T07:46:56.495Z,29
2017-04-05T07:48:04.607Z,28
2017-04-05T07:49:12.669Z,29
2017-04-05T07:50:20.752Z,29
2017-04-05T07:51:28.835Z,29
2017-04-05T07:52:36.923Z,29
2017-04-05T07:53:45.014Z,29
2017-04-05T07:54:53.096Z,29
2017-04-05T07:56:01.185Z,29
2017-04-05T07:57:09.269Z,29
2017-04-05T07:58:17.351Z,29
2017-04-05T07:59:25.436Z,29
2017-04-05T08:00:33.523Z,29
2017-04-05T08:01:41.608Z,29
2017-04-05T08:02:49.701Z,29
2017-04-05T08:03:57.788Z,29
2017-04-05T08:05:05.874Z,29
2017-04-05T08:06:13.959Z,28
2017-04-05T08:07:22.095Z,28
2017-04-05T08:08:30.128Z,29
2017-04-05T08:09:38.209Z,29
2017-04-05T08:10:46.297Z,28
2017-04-05T08:11:54.386Z,28
2017-04-05T08:13:02.472Z,28
2017-04-05T08:14:10.556Z,28
2017-04-05T08:15:18.641Z,28
2017-04-05T08:16:26.728Z,28
2017-04-05T08:17:34.815Z,28
2017-04-05T08:18:42.896Z,28
2017-04-05T08:19:50.987Z,28
2017-04-05T08:20:59.073Z,28
2017-04-05T08:22:07.156Z,28
2017-04-05T08:23:15.239Z,28
2017-04-05T08:24:23.335Z,28
2017-04-05T08:25:31.415Z,28
2017-04-05T08:26:39.495Z,28
2017-04-05T08:27:47.583Z,28
2017-04-05T08:28:55.667Z,28
2017-04-05T08:30:03.753Z,28
2017-04-05T08:31:11.839Z,28
2017-04-05T08:32:19.930Z,28
2017-04-05T08:33:28.011Z,28
2017-04-05T08:34:36.098Z,28
2017-04-05T08:35:44.190Z,28
2017-04-05T08:36:52.282Z,28
2017-04-05T08:38:00.592Z,28
2017-04-05T08:39:08.451Z,28
2017-04-05T08:40:16.573Z,28
2017-04-05T08:41:25.095Z,28
2017-04-05T08:42:32.704Z,28
2017-04-05T08:43:40.792Z,28
2017-04-05T08:44:48.876Z,28
2017-04-05T08:45:56.960Z,28
2017-04-05T08:47:05.047Z,28
2017-04-05T08:48:13.130Z,28
2017-04-05T08:49:21.231Z,28
2017-04-05T08:50:29.302Z,28
2017-04-05T08:51:37.394Z,28
2017-04-05T08:52:45.479Z,28
2017-04-05T08:53:53.563Z,28
2017-04-05T08:55:01.649Z,28
2017-04-05T08:56:09.731Z,28
2017-04-05T08:57:17.816Z,28
2017-04-05T08:58:26.027Z,28
2017-04-05T08:59:34.220Z,28
2017-04-05T09:00:42.127Z,28
2017-04-05T09:01:50.158Z,28
2017-04-05T09:02:58.245Z,28
2017-04-05T09:04:06.330Z,28
2017-04-05T09:05:14.418Z,28
2017-04-05T09:06:22.500Z,28
2017-04-05T09:07:30.588Z,28
2017-04-05T09:08:38.672Z,28
2017-04-05T09:09:46.752Z,28
2017-04-05T09:10:54.842Z,28
2017-04-05T09:12:02.927Z,28
2017-04-05T09:13:11.007Z,29
2017-04-05T09:14:19.091Z,28
2017-04-05T09:15:27.181Z,29
2017-04-05T09:16:35.270Z,28
2017-04-05T09:17:43.387Z,28
2017-04-05T09:18:51.442Z,28
2017-04-05T09:19:59.527Z,28
2017-04-05T09:21:07.616Z,29
2017-04-05T09:22:15.698Z,28
2017-04-05T09:23:23.782Z,28
2017-04-05T09:24:31.905Z,29
2017-04-05T09:25:39.952Z,28
2017-04-05T09:26:48.043Z,29
2017-04-05T09:27:56.124Z,28
2017-04-05T09:29:04.212Z,28
2017-04-05T09:30:12.293Z,28
2017-04-05T09:31:20.382Z,28
2017-04-05T09:32:28.471Z,28
2017-04-05T09:33:36.555Z,28
2017-04-05T09:34:44.643Z,28
2017-04-05T09:35:52.730Z,28
2017-04-05T09:37:00.812Z,28
2017-04-05T09:38:08.897Z,28
2017-04-05T09:39:16.984Z,28
2017-04-05T09:40:25.075Z,29
2017-04-05T09:41:33.158Z,28
2017-04-05T09:42:41.248Z,29
2017-04-05T09:43:49.333Z,29
2017-04-05T09:44:57.415Z,29
2017-04-05T09:46:05.505Z,28
2017-04-05T09:47:13.591Z,29
2017-04-05T09:48:21.673Z,29
2017-04-05T09:49:29.757Z,29
2017-04-05T09:50:37.848Z,28
2017-04-05T09:51:45.934Z,28
2017-04-05T09:52:54.022Z,29
2017-04-05T09:54:02.105Z,28
2017-04-05T09:55:10.191Z,28
2017-04-05T09:56:18.272Z,28
2017-04-05T09:57:26.353Z,28
2017-04-05T09:58:34.444Z,29
2017-04-05T09:59:42.534Z,29
2017-04-05T10:00:50.615Z,29
2017-04-05T10:01:58.711Z,29
2017-04-05T10:03:06.794Z,29
2017-04-05T10:04:14.878Z,28
2017-04-05T10:05:22.957Z,29
2017-04-05T10:06:31.045Z,29
2017-04-05T10:07:39.129Z,29
2017-04-05T10:08:48.254Z,29
2017-04-05T10:09:55.931Z,29
2017-04-05T10:11:03.765Z,29
2017-04-05T10:12:11.679Z,28
2017-04-05T10:13:19.977Z,28
2017-04-05T10:14:27.648Z,28
2017-04-05T10:15:35.734Z,28
2017-04-05T10:16:44.330Z,29
2017-04-05T10:17:52.577Z,29
2017-04-05T10:18:59.987Z,28
2017-04-05T10:20:08.799Z,28
2017-04-05T10:21:16.162Z,28
2017-04-05T10:22:24.343Z,28
2017-04-05T10:23:32.338Z,29
2017-04-05T10:24:40.762Z,29
2017-04-05T10:25:48.991Z,29
2017-04-05T10:26:56.922Z,29
2017-04-05T10:28:04.691Z,29
2017-04-05T10:29:12.770Z,29
2017-04-05T10:30:21.142Z,28
2017-04-05T10:31:29.400Z,29
2017-04-05T10:32:37.197Z,28
2017-04-05T10:33:45.115Z,29
2017-04-05T10:34:53.200Z,29
2017-04-05T10:36:01.282Z,28
2017-04-05T10:37:09.368Z,28
2017-04-05T10:38:17.455Z,28
2017-04-05T10:39:25.542Z,28
2017-04-05T10:40:33.627Z,29
2017-04-05T10:41:41.712Z,29
2017-04-05T10:42:49.797Z,29
2017-04-05T10:43:57.880Z,28
2017-04-05T10:45:06.373Z,29
2017-04-05T10:46:14.144Z,29
2017-04-05T10:47:22.239Z,28
2017-04-05T10:48:30.223Z,28
2017-04-05T10:49:38.309Z,28
2017-04-05T10:50:46.393Z,29
2017-04-05T10:51:54.486Z,28
2017-04-05T10:53:02.573Z,29
2017-04-05T10:54:10.659Z,29
2017-04-05T10:55:18.748Z,29
2017-04-05T10:56:26.827Z,29
2017-04-05T10:57:34.944Z,28
2017-04-05T10:58:43.031Z,29
2017-04-05T10:59:51.209Z,29
2017-04-05T11:00:59.171Z,29
2017-04-05T11:02:07.913Z,29
2017-04-05T11:03:15.339Z,29
2017-04-05T11:04:23.422Z,29
2017-04-05T11:05:31.510Z,29
2017-04-05T11:06:39.597Z,29
2017-04-05T11:07:47.683Z,29
2017-04-05T11:08:55.769Z,29
2017-04-05T11:10:03.935Z,29
2017-04-05T11:11:11.941Z,29
2017-04-05T11:12:20.025Z,29
2017-04-05T11:13:28.119Z,29
2017-04-05T11:14:36.202Z,29
2017-04-05T11:15:44.284Z,29
2017-04-05T11:16:52.379Z,29
2017-04-05T11:18:00.459Z,29
2017-04-05T11:19:08.547Z,29
2017-04-05T11:20:16.633Z,29
2017-04-05T11:21:24.718Z,29
2017-04-05T11:22:32.800Z,29
2017-04-05T11:23:40.883Z,29
2017-04-05T11:24:48.973Z,28
2017-04-05T11:25:57.056Z,28
2017-04-05T11:27:05.217Z,28
2017-04-05T11:28:13.228Z,28
2017-04-05T11:29:21.323Z,28
2017-04-05T11:30:29.412Z,28
2017-04-05T11:31:37.491Z,28
2017-04-05T11:32:45.588Z,28
2017-04-05T11:33:53.666Z,28
2017-04-05T11:35:01.755Z,28
2017-04-05T11:36:09.835Z,28
2017-04-05T11:37:17.921Z,28
2017-04-05T11:38:26.008Z,27
2017-04-05T11:39:34.096Z,27
2017-04-05T11:40:42.180Z,27
2017-04-05T11:41:50.267Z,26
2017-04-05T11:42:58.349Z,26
2017-04-05T11:44:06.461Z,26
2017-04-05T11:45:15.087Z,25
2017-04-05T11:46:23.210Z,25
2017-04-05T11:47:30.689Z,25
2017-04-05T11:48:38.774Z,25
2017-04-05T11:49:46.860Z,25
2017-04-05T11:50:54.943Z,25
2017-04-05T11:52:03.033Z,25
2017-04-05T11:53:11.120Z,25
2017-04-05T11:54:19.703Z,25
2017-04-05T11:55:27.294Z,25
2017-04-05T11:56:35.784Z,25
2017-04-05T11:57:43.459Z,25
2017-04-05T11:58:51.543Z,25
2017-04-05T11:59:59.635Z,25
2017-04-05T12:01:07.721Z,25
2017-04-05T12:02:15.807Z,25
2017-04-05T12:03:23.890Z,25
2017-04-05T12:04:31.979Z,25
2017-04-05T12:05:40.072Z,25
2017-04-05T12:06:48.150Z,25
2017-04-05T12:07:56.239Z,25
2017-04-05T12:09:04.374Z,24
2017-04-05T12:10:12.402Z,23
2017-04-05T12:11:20.607Z,23
2017-04-05T12:12:28.584Z,22
2017-04-05T12:13:36.668Z,22
2017-04-05T12:14:44.969Z,22
2017-04-05T12:15:52.850Z,22
2017-04-05T12:17:00.932Z,21
2017-04-05T12:18:09.018Z,21
2017-04-05T12:19:17.098Z,21
2017-04-05T12:20:25.186Z,21
2017-04-05T12:21:33.267Z,22
2017-04-05T12:22:41.357Z,22
2017-04-05T12:23:49.443Z,22
2017-04-05T12:24:58.204Z,22
2017-04-05T12:26:05.610Z,23
2017-04-05T12:27:13.695Z,23
2017-04-05T12:28:21.785Z,23
2017-04-05T12:29:29.868Z,23
2017-04-05T12:30:37.950Z,23
2017-04-05T12:31:46.045Z,23
2017-04-05T12:32:54.122Z,23
2017-04-05T12:34:02.207Z,23
2017-04-05T12:35:10.291Z,23
2017-04-05T12:36:18.377Z,23
2017-04-05T12:37:26.466Z,23
2017-04-05T12:38:34.553Z,23
2017-04-05T12:39:42.666Z,24
2017-04-05T12:40:50.727Z,24
2017-04-05T12:41:58.815Z,24
2017-04-05T12:45:23.063Z,24
2017-04-05T12:46:31.156Z,24
2017-04-05T12:47:39.243Z,24
2017-04-05T12:48:47.337Z,24
2017-04-05T12:49:55.422Z,24
2017-04-05T12:51:03.517Z,25
2017-04-05T12:52:11.601Z,25
2017-04-05T12:53:19.689Z,25
2017-04-05T12:54:27.769Z,25
2017-04-05T12:55:35.858Z,25
2017-04-05T12:56:43.945Z,25
2017-04-05T12:57:52.026Z,25
2017-04-05T12:59:00.114Z,25
2017-04-05T13:00:08.200Z,25
2017-04-05T13:01:16.280Z,25
2017-04-05T13:02:24.367Z,26
2017-04-05T13:03:32.455Z,26
2017-04-05T13:04:40.542Z,26
2017-04-05T13:05:48.626Z,26
2017-04-05T13:06:56.710Z,26
2017-04-05T13:08:04.794Z,26
2017-04-05T13:09:12.882Z,26
2017-04-05T13:10:20.966Z,26
2017-04-05T13:11:29.055Z,26
2017-04-05T13:12:37.140Z,26
2017-04-05T13:13:45.220Z,26
2017-04-05T13:14:53.312Z,26
2017-04-05T13:16:01.397Z,25
2017-04-05T13:17:09.488Z,25
2017-04-05T13:18:17.567Z,25
2017-04-05T13:19:25.656Z,25
2017-04-05T13:20:33.755Z,24
2017-04-05T13:21:41.846Z,24
2017-04-05T13:22:49.935Z,24
2017-04-05T13:23:58.016Z,24
2017-04-05T13:25:06.100Z,24
2017-04-05T13:26:14.276Z,24
2017-04-05T13:27:22.275Z,24
2017-04-05T13:28:30.359Z,23
2017-04-05T13:29:38.441Z,23
2017-04-05T13:30:46.528Z,23
2017-04-05T13:31:54.616Z,23
2017-04-05T13:33:02.699Z,23
2017-04-05T13:34:10.785Z,23
2017-04-05T13:35:18.873Z,23
2017-04-05T13:36:26.955Z,23
2017-04-05T13:37:35.039Z,22
2017-04-05T13:38:43.127Z,22
2017-04-05T13:39:51.213Z,22
2017-04-05T13:40:59.297Z,22
2017-04-05T13:42:07.387Z,23
2017-04-05T13:43:15.462Z,23
2017-04-05T13:44:23.560Z,23
2017-04-05T13:45:31.637Z,23
2017-04-05T13:46:39.724Z,23
2017-04-05T13:47:47.816Z,23
2017-04-05T13:48:55.891Z,23
2017-04-05T13:50:03.982Z,23
2017-04-05T13:51:12.069Z,23
2017-04-05T13:52:20.151Z,23
2017-04-05T13:53:28.229Z,23
2017-04-05T13:54:36.336Z,23
2017-04-05T13:55:44.406Z,23
2017-04-05T13:56:52.492Z,23
2017-04-05T13:58:00.578Z,23
2017-04-05T13:59:08.666Z,23
2017-04-05T14:00:16.746Z,23
2017-04-05T14:01:24.830Z,22
2017-04-05T14:02:32.916Z,23
2017-04-05T14:03:41.003Z,23
2017-04-05T14:04:49.090Z,23
2017-04-05T14:05:57.174Z,23
2017-04-05T14:07:05.262Z,23
2017-04-05T14:08:13.340Z,23
2017-04-05T14:09:21.426Z,23
2017-04-05T14:10:29.518Z,23
2017-04-05T14:11:37.598Z,23
2017-04-05T14:12:45.684Z,23
2017-04-05T14:13:53.773Z,23
2017-04-05T14:15:01.860Z,24
2017-04-05T14:16:09.945Z,24
2017-04-05T14:17:18.202Z,24
2017-04-05T14:18:26.116Z,24
2017-04-05T14:19:34.199Z,24
2017-04-05T14:20:42.284Z,25
2017-04-05T14:21:50.373Z,24
2017-04-05T14:22:58.459Z,25
2017-04-05T14:24:06.539Z,25
2017-04-05T14:25:14.622Z,25
2017-04-05T14:26:22.710Z,25
2017-04-05T14:27:30.796Z,25
2017-04-05T14:28:38.877Z,25
2017-04-05T14:29:47.019Z,25
2017-04-05T14:30:55.053Z,25
2017-04-05T14:32:03.139Z,25
2017-04-05T14:33:11.218Z,25
2017-04-05T14:34:19.308Z,25
2017-04-05T14:35:27.406Z,25
2017-04-05T14:36:35.473Z,25
2017-04-05T14:37:43.567Z,26
2017-04-05T14:38:51.652Z,26
2017-04-05T14:39:59.737Z,26
2017-04-05T14:41:07.820Z,26
2017-04-05T14:42:15.905Z,26
2017-04-05T14:43:23.993Z,26
2017-04-05T14:44:32.075Z,26
2017-04-05T14:45:40.162Z,26
2017-04-05T14:46:48.283Z,26
2017-04-05T14:47:56.338Z,26
2017-04-05T14:49:04.427Z,26
2017-04-05T14:50:12.513Z,26
2017-04-05T14:51:20.690Z,26
2017-04-05T14:52:28.683Z,26
2017-04-05T14:53:36.770Z,26
2017-04-05T14:54:44.857Z,26
2017-04-05T14:55:52.938Z,26
2017-04-05T14:57:01.026Z,26
2017-04-05T14:58:09.116Z,26
2017-04-05T14:59:17.203Z,26
2017-04-05T15:00:25.284Z,26
2017-04-05T15:01:33.371Z,27
2017-04-05T15:02:41.456Z,26
2017-04-05T15:03:49.558Z,26
2017-04-05T15:04:57.625Z,27
2017-04-05T15:06:05.710Z,26
2017-04-05T15:07:13.793Z,26
2017-04-05T15:08:21.875Z,26
2017-04-05T15:09:29.966Z,26
2017-04-05T15:10:38.063Z,26
2017-04-05T15:11:46.139Z,26
2017-04-05T15:12:54.230Z,26
2017-04-05T15:14:02.312Z,26
2017-04-05T15:15:10.399Z,26
2017-04-05T15:16:18.493Z,26
2017-04-05T15:17:26.569Z,26
2017-04-05T15:18:34.651Z,26
2017-04-05T15:19:42.735Z,26
2017-04-05T15:20:50.863Z,26
2017-04-05T15:21:58.908Z,26
2017-04-05T15:23:06.989Z,26
2017-04-05T15:24:15.077Z,26
2017-04-05T15:25:23.163Z,27
2017-04-05T15:26:31.249Z,26
2017-04-05T15:27:39.332Z,27
2017-04-05T15:28:47.420Z,27
2017-04-05T15:29:55.510Z,27
2017-04-05T15:31:03.597Z,27
2017-04-05T15:32:11.676Z,27
2017-04-05T15:33:19.765Z,27
2017-04-05T15:34:27.846Z,27
2017-04-05T15:35:35.929Z,27
2017-04-05T15:36:44.017Z,27
2017-04-05T15:37:52.101Z,27
2017-04-05T15:39:00.186Z,27
2017-04-05T15:40:08.269Z,27
2017-04-05T15:41:16.356Z,27
2017-04-05T15:42:24.443Z,27
2017-04-05T15:43:32.523Z,27
2017-04-05T15:44:40.610Z,27
2017-04-05T15:45:48.696Z,27
2017-04-05T15:46:56.776Z,27
2017-04-05T15:48:04.864Z,27
2017-04-05T15:49:12.948Z,27
2017-04-05T15:50:21.031Z,27
2017-04-05T15:51:29.112Z,27
2017-04-05T15:52:37.201Z,27
2017-04-05T15:53:45.284Z,27
2017-04-05T15:54:53.367Z,27
2017-04-05T15:56:01.455Z,27
2017-04-05T15:57:09.540Z,27
2017-04-05T15:58:17.621Z,27
2017-04-05T15:59:25.706Z,27
2017-04-05T16:00:33.793Z,27
2017-04-05T16:01:41.880Z,27
2017-04-05T16:02:49.959Z,27
2017-04-05T16:03:58.048Z,27
2017-04-05T16:05:06.135Z,27
2017-04-05T16:06:14.222Z,27
2017-04-05T16:07:22.299Z,27
2017-04-05T16:08:30.386Z,27
2017-04-05T16:09:38.474Z,28
2017-04-05T16:10:46.556Z,27
2017-04-05T16:11:54.646Z,27
2017-04-05T16:13:02.727Z,27